岩国 の空港の天気 - METARとTAF

岩国飛行場 ( RJOI / IWK ) - 山口県岩国市
飛行場実況気象(Metar)
観測時間05/28 20:55 JST (05/28 11:55 UTC)
風向・風速静穏 0m/s
視程10km以上
天気現象
少しの雲 雲底高度 910m
気温21.1℃
湿度63%
気圧1013hPa
METARRJOI 281155Z 00000KT 9999 FEW030 21/14 A2992 RMK SLP130 T02110139 10256 20211 53003
過去の天気等 Google飛行場航空写真 Wunderground天気予報

過去48時間のMETAR

飛行場予報(TAF)
発表時間: -
28日18時 JST ~ 28日10時 JST に徐々に
風向・風速南南西 7m/s
29日6時 JST から
風向・風速東 4m/s
視程10km以上
少しの雲 雲底高度 910m
TAF COR RJOI 2809/2909 18016KT 9999 FEW030 562009 562901 QNH2987INS
BECMG 2809/28011 20014KT 562009 562901
FM282100 08008KT 9999 FEW030 50000 QNH2991INS T16/2812Z T29/2006Z COR 1950
日本の空港のMETAR・TAFへのリンク

RJTT 東京国際空港
RJAA 新東京国際空港
RJBB 関西国際空港
RJOO 大阪空港
RJGG 中部国際空港
RJCC 新千歳空港
RJFF 福岡空港
ROAH 那覇空港


RJEC 旭川空港
RJCH 函館空港
RJCK 釧路空港
RJCM 女満別空港
RJCB 帯広空港
RJSA 青森空港
RJSS 仙台空港
RJSK 秋田空港
RJSF 福島空港
RJAH 茨城空港
RJSN 新潟空港
RJNT 富山空港
RJNK 小松飛行場
RJNS 静岡空港
RJOH 美保飛行場
RJOC 出雲空港
RJOB 岡山空港
RJOA 広島空港
RJOI 岩国飛行場
RJOT 高松空港
RJOM 松山空港
RJOK 高知空港
RJFR 北九州空港
RJFT 熊本空港
RJFU 長崎空港
RJFS 佐賀空港
RJFO 大分空港
RJFM 宮崎空港
RJFK 鹿児島空港
ROIG 石垣島空港
RJTY 横田飛行場
ROTM 普天間飛行場
RODN 嘉手納飛行場